sensor_id;sensor_type;location;lat;lon;timestamp;temperature;humidity
18779;DHT22;9518;51.720;14.384;2023-04-25T00:02:00;6.70;99.90
18779;DHT22;9518;51.720;14.384;2023-04-25T00:04:29;6.80;99.90
18779;DHT22;9518;51.720;14.384;2023-04-25T00:06:59;6.80;99.90
18779;DHT22;9518;51.720;14.384;2023-04-25T00:09:28;6.80;99.90
18779;DHT22;9518;51.720;14.384;2023-04-25T00:11:56;6.70;99.90
18779;DHT22;9518;51.720;14.384;2023-04-25T00:14:23;6.70;99.90
18779;DHT22;9518;51.720;14.384;2023-04-25T00:16:51;6.60;99.90
18779;DHT22;9518;51.720;14.384;2023-04-25T00:19:19;6.70;99.90
18779;DHT22;9518;51.720;14.384;2023-04-25T00:21:46;6.70;99.90
18779;DHT22;9518;51.720;14.384;2023-04-25T00:24:13;6.80;99.90
18779;DHT22;9518;51.720;14.384;2023-04-25T00:26:40;6.90;99.90
18779;DHT22;9518;51.720;14.384;2023-04-25T00:29:09;7.00;99.90
18779;DHT22;9518;51.720;14.384;2023-04-25T00:31:36;6.90;99.90
18779;DHT22;9518;51.720;14.384;2023-04-25T00:34:03;6.80;99.90
18779;DHT22;9518;51.720;14.384;2023-04-25T00:36:30;6.80;99.90
18779;DHT22;9518;51.720;14.384;2023-04-25T00:38:57;6.70;99.90
18779;DHT22;9518;51.720;14.384;2023-04-25T00:41:25;6.70;99.90
18779;DHT22;9518;51.720;14.384;2023-04-25T00:43:54;6.70;99.90
18779;DHT22;9518;51.720;14.384;2023-04-25T00:46:22;6.70;99.90
18779;DHT22;9518;51.720;14.384;2023-04-25T00:48:49;6.60;99.90
18779;DHT22;9518;51.720;14.384;2023-04-25T00:51:20;6.50;99.90
18779;DHT22;9518;51.720;14.384;2023-04-25T00:53:47;6.60;99.90
18779;DHT22;9518;51.720;14.384;2023-04-25T00:56:16;6.50;99.90
18779;DHT22;9518;51.720;14.384;2023-04-25T00:58:43;6.40;99.90
18779;DHT22;9518;51.720;14.384;2023-04-25T01:01:10;6.40;99.90
18779;DHT22;9518;51.720;14.384;2023-04-25T01:03:40;6.30;99.90
18779;DHT22;9518;51.720;14.384;2023-04-25T01:06:08;6.30;99.90
18779;DHT22;9518;51.720;14.384;2023-04-25T01:08:36;6.40;99.90
18779;DHT22;9518;51.720;14.384;2023-04-25T01:11:04;6.50;99.90
18779;DHT22;9518;51.720;14.384;2023-04-25T01:13:31;6.50;99.90
18779;DHT22;9518;51.720;14.384;2023-04-25T01:15:58;6.50;99.90
18779;DHT22;9518;51.720;14.384;2023-04-25T01:18:25;6.50;99.90
18779;DHT22;9518;51.720;14.384;2023-04-25T01:20:54;6.40;99.90
18779;DHT22;9518;51.720;14.384;2023-04-25T01:23:23;6.40;99.90
18779;DHT22;9518;51.720;14.384;2023-04-25T01:25:51;6.30;99.90
18779;DHT22;9518;51.720;14.384;2023-04-25T01:28:18;6.20;99.90
18779;DHT22;9518;51.720;14.384;2023-04-25T01:30:46;6.10;99.90
18779;DHT22;9518;51.720;14.384;2023-04-25T01:33:14;6.10;99.90
18779;DHT22;9518;51.720;14.384;2023-04-25T01:35:42;6.00;99.90
18779;DHT22;9518;51.720;14.384;2023-04-25T01:38:09;6.00;99.90
18779;DHT22;9518;51.720;14.384;2023-04-25T01:40:40;5.90;99.90
18779;DHT22;9518;51.720;14.384;2023-04-25T01:43:07;5.80;99.90
18779;DHT22;9518;51.720;14.384;2023-04-25T01:45:36;5.70;99.90
18779;DHT22;9518;51.720;14.384;2023-04-25T01:48:05;5.60;99.90
18779;DHT22;9518;51.720;14.384;2023-04-25T01:50:32;5.70;99.90
18779;DHT22;9518;51.720;14.384;2023-04-25T01:53:00;5.70;99.90
18779;DHT22;9518;51.720;14.384;2023-04-25T01:55:28;5.80;99.90
18779;DHT22;9518;51.720;14.384;2023-04-25T01:57:56;5.70;99.90
18779;DHT22;9518;51.720;14.384;2023-04-25T02:00:24;5.60;99.90
18779;DHT22;9518;51.720;14.384;2023-04-25T02:02:51;5.60;99.90
18779;DHT22;9518;51.720;14.384;2023-04-25T02:05:19;5.60;99.90
18779;DHT22;9518;51.720;14.384;2023-04-25T02:07:47;5.60;99.90
18779;DHT22;9518;51.720;14.384;2023-04-25T02:10:14;5.70;99.90
18779;DHT22;9518;51.720;14.384;2023-04-25T02:12:41;5.70;99.90
18779;DHT22;9518;51.720;14.384;2023-04-25T02:15:10;5.80;99.90
18779;DHT22;9518;51.720;14.384;2023-04-25T02:17:37;5.80;99.90
18779;DHT22;9518;51.720;14.384;2023-04-25T02:20:05;5.90;99.90
18779;DHT22;9518;51.720;14.384;2023-04-25T02:22:33;5.90;99.90
18779;DHT22;9518;51.720;14.384;2023-04-25T02:25:01;5.80;99.90
18779;DHT22;9518;51.720;14.384;2023-04-25T02:27:30;5.80;99.90
18779;DHT22;9518;51.720;14.384;2023-04-25T02:29:57;5.80;99.90
18779;DHT22;9518;51.720;14.384;2023-04-25T02:32:25;5.80;99.90
18779;DHT22;9518;51.720;14.384;2023-04-25T02:34:52;5.90;99.90
18779;DHT22;9518;51.720;14.384;2023-04-25T02:37:20;6.00;99.90
18779;DHT22;9518;51.720;14.384;2023-04-25T02:39:47;5.90;99.90
18779;DHT22;9518;51.720;14.384;2023-04-25T02:42:14;5.90;99.90
18779;DHT22;9518;51.720;14.384;2023-04-25T02:44:41;5.90;99.90
18779;DHT22;9518;51.720;14.384;2023-04-25T02:47:08;5.70;99.90
18779;DHT22;9518;51.720;14.384;2023-04-25T02:49:36;5.70;99.90
18779;DHT22;9518;51.720;14.384;2023-04-25T02:52:03;5.60;99.90
18779;DHT22;9518;51.720;14.384;2023-04-25T02:54:31;5.60;99.90
18779;DHT22;9518;51.720;14.384;2023-04-25T02:56:58;5.60;99.90
18779;DHT22;9518;51.720;14.384;2023-04-25T02:59:25;5.50;99.90
18779;DHT22;9518;51.720;14.384;2023-04-25T03:01:52;5.50;99.90
18779;DHT22;9518;51.720;14.384;2023-04-25T03:04:19;5.50;99.90
18779;DHT22;9518;51.720;14.384;2023-04-25T03:06:50;5.60;99.90
18779;DHT22;9518;51.720;14.384;2023-04-25T03:09:18;5.60;99.90
18779;DHT22;9518;51.720;14.384;2023-04-25T03:11:45;5.60;99.90
18779;DHT22;9518;51.720;14.384;2023-04-25T03:14:12;5.70;99.90
18779;DHT22;9518;51.720;14.384;2023-04-25T03:16:39;5.70;99.90
18779;DHT22;9518;51.720;14.384;2023-04-25T03:19:06;5.70;99.90
18779;DHT22;9518;51.720;14.384;2023-04-25T03:21:36;5.70;99.90
18779;DHT22;9518;51.720;14.384;2023-04-25T03:24:06;5.70;99.90
18779;DHT22;9518;51.720;14.384;2023-04-25T03:26:33;5.80;99.90
18779;DHT22;9518;51.720;14.384;2023-04-25T03:29:00;5.70;99.90
18779;DHT22;9518;51.720;14.384;2023-04-25T03:31:27;5.70;99.90
18779;DHT22;9518;51.720;14.384;2023-04-25T03:33:54;5.70;99.90
18779;DHT22;9518;51.720;14.384;2023-04-25T03:36:21;5.70;99.90
18779;DHT22;9518;51.720;14.384;2023-04-25T03:38:48;5.70;99.90
18779;DHT22;9518;51.720;14.384;2023-04-25T03:41:17;5.60;99.90
18779;DHT22;9518;51.720;14.384;2023-04-25T03:43:43;5.60;99.90
18779;DHT22;9518;51.720;14.384;2023-04-25T03:46:10;5.60;99.90
18779;DHT22;9518;51.720;14.384;2023-04-25T03:48:37;5.50;99.90
18779;DHT22;9518;51.720;14.384;2023-04-25T03:51:04;5.30;99.90
18779;DHT22;9518;51.720;14.384;2023-04-25T03:53:31;5.20;99.90
18779;DHT22;9518;51.720;14.384;2023-04-25T03:55:58;5.20;99.90
18779;DHT22;9518;51.720;14.384;2023-04-25T03:58:27;5.10;99.90
18779;DHT22;9518;51.720;14.384;2023-04-25T04:00:54;5.10;99.90
18779;DHT22;9518;51.720;14.384;2023-04-25T04:03:21;4.90;99.90
18779;DHT22;9518;51.720;14.384;2023-04-25T04:05:48;4.80;99.90
18779;DHT22;9518;51.720;14.384;2023-04-25T04:08:16;4.70;99.90
18779;DHT22;9518;51.720;14.384;2023-04-25T04:10:43;4.60;99.90
18779;DHT22;9518;51.720;14.384;2023-04-25T04:13:10;4.50;99.90
18779;DHT22;9518;51.720;14.384;2023-04-25T04:15:38;4.40;99.90
18779;DHT22;9518;51.720;14.384;2023-04-25T04:18:05;4.40;99.90
18779;DHT22;9518;51.720;14.384;2023-04-25T04:20:32;4.40;99.90
18779;DHT22;9518;51.720;14.384;2023-04-25T04:22:59;4.50;99.90
18779;DHT22;9518;51.720;14.384;2023-04-25T04:25:26;4.50;99.90
18779;DHT22;9518;51.720;14.384;2023-04-25T04:27:54;4.50;99.90
18779;DHT22;9518;51.720;14.384;2023-04-25T04:30:23;4.60;99.90
18779;DHT22;9518;51.720;14.384;2023-04-25T04:32:52;4.60;99.90
18779;DHT22;9518;51.720;14.384;2023-04-25T04:35:19;4.70;99.90
18779;DHT22;9518;51.720;14.384;2023-04-25T04:37:46;4.70;99.90
18779;DHT22;9518;51.720;14.384;2023-04-25T04:40:14;4.70;99.90
18779;DHT22;9518;51.720;14.384;2023-04-25T04:42:42;4.60;99.90
18779;DHT22;9518;51.720;14.384;2023-04-25T04:45:09;4.50;99.90
18779;DHT22;9518;51.720;14.384;2023-04-25T04:47:37;4.40;99.90
18779;DHT22;9518;51.720;14.384;2023-04-25T04:50:07;4.50;99.90
18779;DHT22;9518;51.720;14.384;2023-04-25T04:52:35;4.60;99.90
18779;DHT22;9518;51.720;14.384;2023-04-25T04:55:03;4.70;99.90
18779;DHT22;9518;51.720;14.384;2023-04-25T04:57:31;5.00;99.90
18779;DHT22;9518;51.720;14.384;2023-04-25T04:59:58;5.20;99.90
18779;DHT22;9518;51.720;14.384;2023-04-25T05:02:26;5.30;99.90
18779;DHT22;9518;51.720;14.384;2023-04-25T05:04:53;5.50;99.90
18779;DHT22;9518;51.720;14.384;2023-04-25T05:07:21;5.70;99.90
18779;DHT22;9518;51.720;14.384;2023-04-25T05:09:48;6.00;99.90
18779;DHT22;9518;51.720;14.384;2023-04-25T05:12:15;6.30;99.90
18779;DHT22;9518;51.720;14.384;2023-04-25T05:14:42;6.40;99.90
18779;DHT22;9518;51.720;14.384;2023-04-25T05:17:09;6.60;99.90
18779;DHT22;9518;51.720;14.384;2023-04-25T05:19:36;6.80;99.90
18779;DHT22;9518;51.720;14.384;2023-04-25T05:22:04;7.00;99.90
18779;DHT22;9518;51.720;14.384;2023-04-25T05:24:33;7.20;99.90
18779;DHT22;9518;51.720;14.384;2023-04-25T05:27:00;7.40;99.90
18779;DHT22;9518;51.720;14.384;2023-04-25T05:29:27;7.60;99.90
18779;DHT22;9518;51.720;14.384;2023-04-25T05:31:55;7.70;99.90
18779;DHT22;9518;51.720;14.384;2023-04-25T05:34:22;7.80;99.90
18779;DHT22;9518;51.720;14.384;2023-04-25T05:36:49;7.90;99.90
18779;DHT22;9518;51.720;14.384;2023-04-25T05:39:16;7.90;99.90
18779;DHT22;9518;51.720;14.384;2023-04-25T05:41:44;8.00;99.90
18779;DHT22;9518;51.720;14.384;2023-04-25T05:44:11;8.10;99.90
18779;DHT22;9518;51.720;14.384;2023-04-25T05:46:38;8.30;99.90
18779;DHT22;9518;51.720;14.384;2023-04-25T05:49:05;8.30;99.90
18779;DHT22;9518;51.720;14.384;2023-04-25T05:51:32;8.40;99.90
18779;DHT22;9518;51.720;14.384;2023-04-25T05:53:59;8.50;99.90
18779;DHT22;9518;51.720;14.384;2023-04-25T05:56:26;8.40;99.90
18779;DHT22;9518;51.720;14.384;2023-04-25T05:58:55;8.50;99.90
18779;DHT22;9518;51.720;14.384;2023-04-25T06:01:22;8.50;99.90
18779;DHT22;9518;51.720;14.384;2023-04-25T06:03:49;8.60;99.90
18779;DHT22;9518;51.720;14.384;2023-04-25T06:06:17;8.80;99.90
18779;DHT22;9518;51.720;14.384;2023-04-25T06:08:44;8.90;99.90
18779;DHT22;9518;51.720;14.384;2023-04-25T06:11:11;8.90;99.90
18779;DHT22;9518;51.720;14.384;2023-04-25T06:13:38;9.00;99.90
18779;DHT22;9518;51.720;14.384;2023-04-25T06:16:07;9.10;99.90
18779;DHT22;9518;51.720;14.384;2023-04-25T06:18:34;9.40;99.90
18779;DHT22;9518;51.720;14.384;2023-04-25T06:21:01;9.40;99.90
18779;DHT22;9518;51.720;14.384;2023-04-25T06:23:28;9.50;99.90
18779;DHT22;9518;51.720;14.384;2023-04-25T06:25:55;9.50;98.40
18779;DHT22;9518;51.720;14.384;2023-04-25T06:28:22;9.50;99.40
18779;DHT22;9518;51.720;14.384;2023-04-25T06:30:50;9.70;99.90
18779;DHT22;9518;51.720;14.384;2023-04-25T06:33:18;9.80;97.70
18779;DHT22;9518;51.720;14.384;2023-04-25T06:35:45;9.90;98.30
18779;DHT22;9518;51.720;14.384;2023-04-25T06:38:12;9.90;96.20
18779;DHT22;9518;51.720;14.384;2023-04-25T06:40:39;9.70;96.50
18779;DHT22;9518;51.720;14.384;2023-04-25T06:43:06;9.60;97.90
18779;DHT22;9518;51.720;14.384;2023-04-25T06:45:33;9.50;98.20
18779;DHT22;9518;51.720;14.384;2023-04-25T06:48:00;9.50;97.90
18779;DHT22;9518;51.720;14.384;2023-04-25T06:50:29;9.60;99.80
18779;DHT22;9518;51.720;14.384;2023-04-25T06:52:56;9.80;97.90
18779;DHT22;9518;51.720;14.384;2023-04-25T06:55:22;10.20;96.00
18779;DHT22;9518;51.720;14.384;2023-04-25T06:57:50;10.60;95.40
18779;DHT22;9518;51.720;14.384;2023-04-25T07:00:17;10.90;93.10
18779;DHT22;9518;51.720;14.384;2023-04-25T07:02:44;11.00;92.30
18779;DHT22;9518;51.720;14.384;2023-04-25T07:05:12;11.00;91.90
18779;DHT22;9518;51.720;14.384;2023-04-25T07:07:40;11.00;91.60
18779;DHT22;9518;51.720;14.384;2023-04-25T07:10:07;10.80;90.70
18779;DHT22;9518;51.720;14.384;2023-04-25T07:12:34;10.90;91.30
18779;DHT22;9518;51.720;14.384;2023-04-25T07:15:02;10.80;91.10
18779;DHT22;9518;51.720;14.384;2023-04-25T07:17:32;10.80;90.80
18779;DHT22;9518;51.720;14.384;2023-04-25T07:20:00;10.70;90.50
18779;DHT22;9518;51.720;14.384;2023-04-25T07:22:26;10.80;91.80
18779;DHT22;9518;51.720;14.384;2023-04-25T07:24:55;10.90;90.50
18779;DHT22;9518;51.720;14.384;2023-04-25T07:27:22;11.00;90.40
18779;DHT22;9518;51.720;14.384;2023-04-25T07:29:49;11.10;89.90
18779;DHT22;9518;51.720;14.384;2023-04-25T07:32:16;11.10;91.20
18779;DHT22;9518;51.720;14.384;2023-04-25T07:34:43;11.00;90.80
18779;DHT22;9518;51.720;14.384;2023-04-25T07:37:10;11.20;90.40
18779;DHT22;9518;51.720;14.384;2023-04-25T07:39:37;11.30;87.30
18779;DHT22;9518;51.720;14.384;2023-04-25T07:42:06;11.70;88.10
18779;DHT22;9518;51.720;14.384;2023-04-25T07:44:33;12.20;86.50
18779;DHT22;9518;51.720;14.384;2023-04-25T07:47:04;12.20;82.80
18779;DHT22;9518;51.720;14.384;2023-04-25T07:49:32;11.90;85.60
18779;DHT22;9518;51.720;14.384;2023-04-25T07:52:00;11.40;82.80
18779;DHT22;9518;51.720;14.384;2023-04-25T07:54:27;11.20;87.60
18779;DHT22;9518;51.720;14.384;2023-04-25T07:56:55;11.20;87.40
18779;DHT22;9518;51.720;14.384;2023-04-25T07:59:23;11.80;88.20
18779;DHT22;9518;51.720;14.384;2023-04-25T08:01:50;12.20;83.30
18779;DHT22;9518;51.720;14.384;2023-04-25T08:04:18;11.90;79.70
18779;DHT22;9518;51.720;14.384;2023-04-25T08:06:45;11.70;83.80
18779;DHT22;9518;51.720;14.384;2023-04-25T08:09:12;12.00;83.20
18779;DHT22;9518;51.720;14.384;2023-04-25T08:11:39;12.40;79.60
18779;DHT22;9518;51.720;14.384;2023-04-25T08:14:06;12.90;81.70
18779;DHT22;9518;51.720;14.384;2023-04-25T08:16:34;12.50;76.10
18779;DHT22;9518;51.720;14.384;2023-04-25T08:19:02;12.10;78.80
18779;DHT22;9518;51.720;14.384;2023-04-25T08:21:29;11.70;79.50
18779;DHT22;9518;51.720;14.384;2023-04-25T08:23:56;11.50;81.10
18779;DHT22;9518;51.720;14.384;2023-04-25T08:26:24;11.90;80.80
18779;DHT22;9518;51.720;14.384;2023-04-25T08:28:51;12.10;81.40
18779;DHT22;9518;51.720;14.384;2023-04-25T08:31:18;12.10;81.10
18779;DHT22;9518;51.720;14.384;2023-04-25T08:33:46;12.20;79.20
18779;DHT22;9518;51.720;14.384;2023-04-25T08:36:15;12.60;76.50
18779;DHT22;9518;51.720;14.384;2023-04-25T08:38:43;12.20;75.40
18779;DHT22;9518;51.720;14.384;2023-04-25T08:41:11;12.00;77.60
18779;DHT22;9518;51.720;14.384;2023-04-25T08:43:42;11.80;80.80
18779;DHT22;9518;51.720;14.384;2023-04-25T08:46:09;11.40;84.30
18779;DHT22;9518;51.720;14.384;2023-04-25T08:48:40;11.10;87.10
18779;DHT22;9518;51.720;14.384;2023-04-25T08:51:10;11.10;84.90
18779;DHT22;9518;51.720;14.384;2023-04-25T08:53:42;11.10;86.70
18779;DHT22;9518;51.720;14.384;2023-04-25T08:56:11;11.30;83.40
18779;DHT22;9518;51.720;14.384;2023-04-25T08:58:40;12.30;81.20
18779;DHT22;9518;51.720;14.384;2023-04-25T09:01:07;12.90;79.80
18779;DHT22;9518;51.720;14.384;2023-04-25T09:03:35;13.00;76.70
18779;DHT22;9518;51.720;14.384;2023-04-25T09:06:02;12.70;74.70
18779;DHT22;9518;51.720;14.384;2023-04-25T09:08:31;12.20;76.50
18779;DHT22;9518;51.720;14.384;2023-04-25T09:10:58;12.00;77.80
18779;DHT22;9518;51.720;14.384;2023-04-25T09:13:27;12.10;78.60
18779;DHT22;9518;51.720;14.384;2023-04-25T09:15:56;12.20;78.10
18779;DHT22;9518;51.720;14.384;2023-04-25T09:18:24;12.20;79.50
18779;DHT22;9518;51.720;14.384;2023-04-25T09:20:54;12.30;79.70
18779;DHT22;9518;51.720;14.384;2023-04-25T09:23:22;12.30;77.60
18779;DHT22;9518;51.720;14.384;2023-04-25T09:25:52;12.20;79.00
18779;DHT22;9518;51.720;14.384;2023-04-25T09:28:24;12.50;79.60
18779;DHT22;9518;51.720;14.384;2023-04-25T09:30:55;12.50;81.90
18779;DHT22;9518;51.720;14.384;2023-04-25T09:33:27;12.20;75.10
18779;DHT22;9518;51.720;14.384;2023-04-25T09:36:02;12.20;77.60
18779;DHT22;9518;51.720;14.384;2023-04-25T09:38:30;12.40;77.60
18779;DHT22;9518;51.720;14.384;2023-04-25T09:40:58;12.60;74.90
18779;DHT22;9518;51.720;14.384;2023-04-25T09:43:26;12.80;76.60
18779;DHT22;9518;51.720;14.384;2023-04-25T09:45:54;12.70;72.20
18779;DHT22;9518;51.720;14.384;2023-04-25T09:48:26;12.30;74.50
18779;DHT22;9518;51.720;14.384;2023-04-25T09:51:06;12.00;74.10
18779;DHT22;9518;51.720;14.384;2023-04-25T09:53:34;11.90;78.10
18779;DHT22;9518;51.720;14.384;2023-04-25T09:56:05;11.60;78.70
18779;DHT22;9518;51.720;14.384;2023-04-25T09:58:33;11.40;80.60
18779;DHT22;9518;51.720;14.384;2023-04-25T10:01:02;11.30;84.40
18779;DHT22;9518;51.720;14.384;2023-04-25T10:03:30;11.60;82.80
18779;DHT22;9518;51.720;14.384;2023-04-25T10:05:59;12.40;81.00
18779;DHT22;9518;51.720;14.384;2023-04-25T10:08:31;13.00;75.30
18779;DHT22;9518;51.720;14.384;2023-04-25T10:11:00;13.00;76.20
18779;DHT22;9518;51.720;14.384;2023-04-25T10:13:29;12.10;76.20
18779;DHT22;9518;51.720;14.384;2023-04-25T10:15:57;11.30;78.50
18779;DHT22;9518;51.720;14.384;2023-04-25T10:18:25;10.60;88.70
18779;DHT22;9518;51.720;14.384;2023-04-25T10:20:54;10.00;99.60
18779;DHT22;9518;51.720;14.384;2023-04-25T10:23:22;9.80;99.90
18779;DHT22;9518;51.720;14.384;2023-04-25T10:25:50;9.90;99.90
18779;DHT22;9518;51.720;14.384;2023-04-25T10:28:18;10.40;99.90
18779;DHT22;9518;51.720;14.384;2023-04-25T10:31:00;11.00;99.90
18779;DHT22;9518;51.720;14.384;2023-04-25T10:33:35;12.00;99.90
18779;DHT22;9518;51.720;14.384;2023-04-25T10:36:10;12.90;96.50
18779;DHT22;9518;51.720;14.384;2023-04-25T10:38:37;12.90;92.50
18779;DHT22;9518;51.720;14.384;2023-04-25T10:41:05;12.70;90.00
18779;DHT22;9518;51.720;14.384;2023-04-25T10:43:38;12.60;90.50
18779;DHT22;9518;51.720;14.384;2023-04-25T10:46:22;12.20;90.70
18779;DHT22;9518;51.720;14.384;2023-04-25T10:48:50;11.40;90.40
18779;DHT22;9518;51.720;14.384;2023-04-25T10:51:22;10.80;93.90
18779;DHT22;9518;51.720;14.384;2023-04-25T10:54:07;10.80;97.90
18779;DHT22;9518;51.720;14.384;2023-04-25T10:56:38;12.20;94.00
18779;DHT22;9518;51.720;14.384;2023-04-25T10:59:10;12.60;94.10
18779;DHT22;9518;51.720;14.384;2023-04-25T11:01:40;12.80;94.00
18779;DHT22;9518;51.720;14.384;2023-04-25T11:04:20;12.70;91.80
18779;DHT22;9518;51.720;14.384;2023-04-25T11:06:59;12.80;92.90
18779;DHT22;9518;51.720;14.384;2023-04-25T11:09:27;13.00;93.70
18779;DHT22;9518;51.720;14.384;2023-04-25T11:11:55;12.90;91.80
18779;DHT22;9518;51.720;14.384;2023-04-25T11:14:24;12.80;90.60
18779;DHT22;9518;51.720;14.384;2023-04-25T11:16:54;13.00;90.10
18779;DHT22;9518;51.720;14.384;2023-04-25T11:19:22;13.70;83.50
18779;DHT22;9518;51.720;14.384;2023-04-25T11:21:50;13.80;80.10
18779;DHT22;9518;51.720;14.384;2023-04-25T11:24:17;13.90;82.00
18779;DHT22;9518;51.720;14.384;2023-04-25T11:26:47;14.30;79.10
18779;DHT22;9518;51.720;14.384;2023-04-25T11:29:14;14.80;75.30
18779;DHT22;9518;51.720;14.384;2023-04-25T11:31:43;14.40;74.50
18779;DHT22;9518;51.720;14.384;2023-04-25T11:34:17;13.20;81.30
18779;DHT22;9518;51.720;14.384;2023-04-25T11:36:45;11.90;87.20
18779;DHT22;9518;51.720;14.384;2023-04-25T11:39:12;11.10;91.40
18779;DHT22;9518;51.720;14.384;2023-04-25T11:41:41;11.30;93.20
18779;DHT22;9518;51.720;14.384;2023-04-25T11:44:08;11.80;90.40
18779;DHT22;9518;51.720;14.384;2023-04-25T11:46:36;12.00;90.40
18779;DHT22;9518;51.720;14.384;2023-04-25T11:49:03;12.10;87.60
18779;DHT22;9518;51.720;14.384;2023-04-25T11:51:38;12.30;86.20
18779;DHT22;9518;51.720;14.384;2023-04-25T11:54:06;12.10;82.40
18779;DHT22;9518;51.720;14.384;2023-04-25T11:56:33;12.40;84.30
18779;DHT22;9518;51.720;14.384;2023-04-25T11:59:01;12.40;84.50
18779;DHT22;9518;51.720;14.384;2023-04-25T12:01:30;12.80;85.00
18779;DHT22;9518;51.720;14.384;2023-04-25T12:03:57;13.10;82.00
18779;DHT22;9518;51.720;14.384;2023-04-25T12:06:28;13.10;78.10
18779;DHT22;9518;51.720;14.384;2023-04-25T12:09:04;13.10;78.30
18779;DHT22;9518;51.720;14.384;2023-04-25T12:11:32;12.60;80.70
18779;DHT22;9518;51.720;14.384;2023-04-25T12:14:02;12.00;81.40
18779;DHT22;9518;51.720;14.384;2023-04-25T12:16:39;11.70;79.50
18779;DHT22;9518;51.720;14.384;2023-04-25T12:19:07;11.30;83.70
18779;DHT22;9518;51.720;14.384;2023-04-25T12:21:33;10.60;85.50
18779;DHT22;9518;51.720;14.384;2023-04-25T12:24:11;9.90;85.70
18779;DHT22;9518;51.720;14.384;2023-04-25T12:26:49;9.50;90.00
18779;DHT22;9518;51.720;14.384;2023-04-25T12:29:18;9.10;92.00
18779;DHT22;9518;51.720;14.384;2023-04-25T12:31:46;9.10;91.80
18779;DHT22;9518;51.720;14.384;2023-04-25T12:34:13;9.20;93.70
18779;DHT22;9518;51.720;14.384;2023-04-25T12:36:40;9.50;90.80
18779;DHT22;9518;51.720;14.384;2023-04-25T12:39:07;9.80;90.60
18779;DHT22;9518;51.720;14.384;2023-04-25T12:41:35;10.00;86.80
18779;DHT22;9518;51.720;14.384;2023-04-25T12:44:03;10.20;84.30
18779;DHT22;9518;51.720;14.384;2023-04-25T12:46:30;10.50;82.90
18779;DHT22;9518;51.720;14.384;2023-04-25T12:48:57;10.80;83.10
18779;DHT22;9518;51.720;14.384;2023-04-25T12:51:24;11.10;82.70
18779;DHT22;9518;51.720;14.384;2023-04-25T12:53:53;11.30;79.00
18779;DHT22;9518;51.720;14.384;2023-04-25T12:56:20;11.60;77.40
18779;DHT22;9518;51.720;14.384;2023-04-25T12:58:49;11.70;74.70
18779;DHT22;9518;51.720;14.384;2023-04-25T13:01:16;11.60;76.20
18779;DHT22;9518;51.720;14.384;2023-04-25T13:03:43;11.70;74.80
18779;DHT22;9518;51.720;14.384;2023-04-25T13:06:10;12.00;74.00
18779;DHT22;9518;51.720;14.384;2023-04-25T13:08:38;12.70;70.40
18779;DHT22;9518;51.720;14.384;2023-04-25T13:11:06;12.70;67.20
18779;DHT22;9518;51.720;14.384;2023-04-25T13:13:33;12.70;69.80
18779;DHT22;9518;51.720;14.384;2023-04-25T13:16:02;12.80;67.50
18779;DHT22;9518;51.720;14.384;2023-04-25T13:18:29;13.30;63.00
18779;DHT22;9518;51.720;14.384;2023-04-25T13:20:56;13.60;66.50
18779;DHT22;9518;51.720;14.384;2023-04-25T13:23:25;13.20;59.80
18779;DHT22;9518;51.720;14.384;2023-04-25T13:25:53;12.70;60.10
18779;DHT22;9518;51.720;14.384;2023-04-25T13:28:21;12.40;61.80
18779;DHT22;9518;51.720;14.384;2023-04-25T13:30:48;12.00;61.60
18779;DHT22;9518;51.720;14.384;2023-04-25T13:33:16;12.00;62.40
18779;DHT22;9518;51.720;14.384;2023-04-25T13:35:43;12.50;61.00
18779;DHT22;9518;51.720;14.384;2023-04-25T13:38:12;13.10;57.90
18779;DHT22;9518;51.720;14.384;2023-04-25T13:40:39;13.20;58.30
18779;DHT22;9518;51.720;14.384;2023-04-25T13:43:06;12.80;56.30
18779;DHT22;9518;51.720;14.384;2023-04-25T13:45:33;12.70;56.70
18779;DHT22;9518;51.720;14.384;2023-04-25T13:48:00;12.70;58.20
18779;DHT22;9518;51.720;14.384;2023-04-25T13:50:28;12.90;57.50
18779;DHT22;9518;51.720;14.384;2023-04-25T13:52:55;13.20;56.60
18779;DHT22;9518;51.720;14.384;2023-04-25T13:55:22;13.60;57.90
18779;DHT22;9518;51.720;14.384;2023-04-25T13:57:49;13.50;56.50
18779;DHT22;9518;51.720;14.384;2023-04-25T14:00:17;13.30;57.80
18779;DHT22;9518;51.720;14.384;2023-04-25T14:02:44;13.00;59.10
18779;DHT22;9518;51.720;14.384;2023-04-25T14:05:11;13.00;58.80
18779;DHT22;9518;51.720;14.384;2023-04-25T14:07:40;13.30;59.10
18779;DHT22;9518;51.720;14.384;2023-04-25T14:10:07;12.90;57.50
18779;DHT22;9518;51.720;14.384;2023-04-25T14:12:34;12.50;59.60
18779;DHT22;9518;51.720;14.384;2023-04-25T14:15:02;12.60;61.60
18779;DHT22;9518;51.720;14.384;2023-04-25T14:17:29;13.00;59.90
18779;DHT22;9518;51.720;14.384;2023-04-25T14:19:56;13.20;59.30
18779;DHT22;9518;51.720;14.384;2023-04-25T14:22:23;13.70;61.00
18779;DHT22;9518;51.720;14.384;2023-04-25T14:24:52;14.10;57.60
18779;DHT22;9518;51.720;14.384;2023-04-25T14:27:19;13.70;51.40
18779;DHT22;9518;51.720;14.384;2023-04-25T14:29:46;13.20;52.00
18779;DHT22;9518;51.720;14.384;2023-04-25T14:32:14;13.30;52.50
18779;DHT22;9518;51.720;14.384;2023-04-25T14:34:41;13.80;53.20
18779;DHT22;9518;51.720;14.384;2023-04-25T14:37:08;13.30;53.30
18779;DHT22;9518;51.720;14.384;2023-04-25T14:39:35;12.30;53.50
18779;DHT22;9518;51.720;14.384;2023-04-25T14:42:03;11.90;55.80
18779;DHT22;9518;51.720;14.384;2023-04-25T14:44:31;11.60;57.20
18779;DHT22;9518;51.720;14.384;2023-04-25T14:46:58;11.70;57.40
18779;DHT22;9518;51.720;14.384;2023-04-25T14:49:25;11.50;57.50
18779;DHT22;9518;51.720;14.384;2023-04-25T14:51:53;11.50;58.50
18779;DHT22;9518;51.720;14.384;2023-04-25T14:54:20;11.60;58.10
18779;DHT22;9518;51.720;14.384;2023-04-25T14:56:49;11.80;58.90
18779;DHT22;9518;51.720;14.384;2023-04-25T14:59:18;11.50;58.80
18779;DHT22;9518;51.720;14.384;2023-04-25T15:01:46;11.20;58.40
18779;DHT22;9518;51.720;14.384;2023-04-25T15:04:13;11.10;58.50
18779;DHT22;9518;51.720;14.384;2023-04-25T15:06:40;11.10;59.70
18779;DHT22;9518;51.720;14.384;2023-04-25T15:09:07;10.90;56.90
18779;DHT22;9518;51.720;14.384;2023-04-25T15:11:36;10.80;59.00
18779;DHT22;9518;51.720;14.384;2023-04-25T15:14:03;10.70;58.20
18779;DHT22;9518;51.720;14.384;2023-04-25T15:16:31;10.90;58.20
18779;DHT22;9518;51.720;14.384;2023-04-25T15:18:58;10.90;56.90
18779;DHT22;9518;51.720;14.384;2023-04-25T15:21:29;11.00;56.30
18779;DHT22;9518;51.720;14.384;2023-04-25T15:23:57;10.80;55.40
18779;DHT22;9518;51.720;14.384;2023-04-25T15:26:24;10.90;56.30
18779;DHT22;9518;51.720;14.384;2023-04-25T15:28:51;11.00;57.30
18779;DHT22;9518;51.720;14.384;2023-04-25T15:31:18;11.10;57.50
18779;DHT22;9518;51.720;14.384;2023-04-25T15:33:47;10.90;54.60
18779;DHT22;9518;51.720;14.384;2023-04-25T15:36:14;11.10;54.90
18779;DHT22;9518;51.720;14.384;2023-04-25T15:38:42;11.00;53.90
18779;DHT22;9518;51.720;14.384;2023-04-25T15:41:09;11.10;55.30
18779;DHT22;9518;51.720;14.384;2023-04-25T15:43:36;11.40;53.60